createdAt,value
2023-04-15T00:01:11.679Z,100.00
2023-04-15T00:03:40.425Z,100.00
2023-04-15T00:06:09.686Z,100.00
2023-04-15T00:08:37.856Z,100.00
2023-04-15T00:11:11.617Z,100.00
2023-04-15T00:13:41.799Z,100.00
2023-04-15T00:16:11.026Z,100.00
2023-04-15T00:18:41.692Z,100.00
2023-04-15T00:21:10.023Z,100.00
2023-04-15T00:23:38.293Z,100.00
2023-04-15T00:26:10.540Z,100.00
2023-04-15T00:28:39.474Z,100.00
2023-04-15T00:31:07.758Z,100.00
2023-04-15T00:33:36.831Z,100.00
2023-04-15T00:36:08.504Z,100.00
2023-04-15T00:38:39.271Z,100.00
2023-04-15T00:41:09.024Z,100.00
2023-04-15T00:43:39.233Z,100.00
2023-04-15T00:46:09.537Z,100.00
2023-04-15T00:48:38.940Z,100.00
2023-04-15T00:51:09.567Z,100.00
2023-04-15T00:53:38.208Z,100.00
2023-04-15T00:56:08.595Z,100.00
2023-04-15T00:58:38.494Z,100.00
2023-04-15T01:01:06.694Z,100.00
2023-04-15T01:03:35.376Z,100.00
2023-04-15T01:06:04.691Z,100.00
2023-04-15T01:08:33.100Z,100.00
2023-04-15T01:11:04.556Z,100.00
2023-04-15T01:13:34.933Z,100.00
2023-04-15T01:16:05.495Z,100.00
2023-04-15T01:18:34.042Z,100.00
2023-04-15T01:21:03.681Z,100.00
2023-04-15T01:23:34.048Z,100.00
2023-04-15T01:26:03.551Z,100.00
2023-04-15T01:28:32.176Z,100.00
2023-04-15T01:31:08.779Z,100.00
2023-04-15T01:33:39.445Z,100.00
2023-04-15T01:36:09.996Z,100.00
2023-04-15T01:38:39.456Z,100.00
2023-04-15T01:41:09.232Z,100.00
2023-04-15T01:43:37.846Z,100.00
2023-04-15T01:46:07.051Z,100.00
2023-04-15T01:48:35.530Z,100.00
2023-04-15T01:51:06.211Z,100.00
2023-04-15T01:53:35.834Z,100.00
2023-04-15T01:56:04.947Z,100.00
2023-04-15T01:58:34.779Z,100.00
2023-04-15T02:01:04.224Z,100.00
2023-04-15T02:03:34.900Z,100.00
2023-04-15T02:06:04.517Z,100.00
2023-04-15T02:08:32.965Z,100.00
2023-04-15T02:11:01.273Z,100.00
2023-04-15T02:13:30.128Z,100.00
2023-04-15T02:16:00.426Z,100.00
2023-04-15T02:18:28.657Z,100.00
2023-04-15T02:20:58.489Z,100.00
2023-04-15T02:23:31.007Z,100.00
2023-04-15T02:26:00.041Z,100.00
2023-04-15T02:28:29.449Z,100.00
2023-04-15T02:30:59.860Z,100.00
2023-04-15T02:33:32.326Z,100.00
2023-04-15T02:36:03.024Z,100.00
2023-04-15T02:38:33.032Z,100.00
2023-04-15T02:41:01.610Z,100.00
2023-04-15T02:43:30.588Z,100.00
2023-04-15T02:45:58.856Z,100.00
2023-04-15T02:48:29.540Z,100.00
2023-04-15T02:51:13.743Z,100.00
2023-04-15T02:53:42.236Z,100.00
2023-04-15T02:56:11.652Z,100.00
2023-04-15T02:58:43.222Z,100.00
2023-04-15T03:01:11.996Z,100.00
2023-04-15T03:03:45.264Z,100.00
2023-04-15T03:06:14.638Z,100.00
2023-04-15T03:08:44.190Z,100.00
2023-04-15T03:11:16.482Z,100.00
2023-04-15T03:13:44.886Z,100.00
2023-04-15T03:16:27.593Z,100.00
2023-04-15T03:18:58.445Z,100.00
2023-04-15T03:21:27.767Z,100.00
2023-04-15T03:23:56.493Z,100.00
2023-04-15T03:26:27.546Z,100.00
2023-04-15T03:28:59.863Z,100.00
2023-04-15T03:31:28.528Z,100.00
2023-04-15T03:33:58.195Z,100.00
2023-04-15T03:36:27.263Z,100.00
2023-04-15T03:38:56.123Z,100.00
2023-04-15T03:41:24.339Z,100.00
2023-04-15T03:43:53.920Z,100.00
2023-04-15T03:46:22.712Z,100.00
2023-04-15T03:48:52.973Z,100.00
2023-04-15T03:51:25.310Z,100.00
2023-04-15T03:53:54.869Z,100.00
2023-04-15T03:56:23.781Z,100.00
2023-04-15T03:58:51.917Z,100.00
2023-04-15T04:01:21.339Z,100.00
2023-04-15T04:03:49.873Z,100.00
2023-04-15T04:06:18.845Z,100.00
2023-04-15T04:08:48.536Z,100.00
2023-04-15T04:11:17.194Z,100.00
2023-04-15T04:13:45.354Z,100.00
2023-04-15T04:16:13.758Z,100.00
2023-04-15T04:18:42.420Z,100.00
2023-04-15T04:21:11.281Z,100.00
2023-04-15T04:23:39.352Z,100.00
2023-04-15T04:26:08.934Z,100.00
2023-04-15T04:28:38.137Z,100.00
2023-04-15T04:31:07.684Z,100.00
2023-04-15T04:33:36.375Z,100.00
2023-04-15T04:36:05.219Z,100.00
2023-04-15T04:38:33.997Z,100.00
2023-04-15T04:41:02.661Z,100.00
2023-04-15T04:43:33.700Z,100.00
2023-04-15T04:46:02.029Z,100.00
2023-04-15T04:48:30.401Z,100.00
2023-04-15T04:51:00.329Z,100.00
2023-04-15T04:53:29.271Z,100.00
2023-04-15T04:55:58.226Z,100.00
2023-04-15T04:58:26.411Z,100.00
2023-04-15T05:00:57.051Z,100.00
2023-04-15T05:03:25.920Z,100.00
2023-04-15T05:05:54.853Z,100.00
2023-04-15T05:08:23.502Z,100.00
2023-04-15T05:10:52.858Z,100.00
2023-04-15T05:13:21.791Z,100.00
2023-04-15T05:15:50.249Z,100.00
2023-04-15T05:18:20.608Z,100.00
2023-04-15T05:20:50.199Z,100.00
2023-04-15T05:23:19.394Z,100.00
2023-04-15T05:25:48.163Z,100.00
2023-04-15T05:28:16.931Z,100.00
2023-04-15T05:30:46.347Z,100.00
2023-04-15T05:33:14.808Z,100.00
2023-04-15T05:35:46.187Z,100.00
2023-04-15T05:38:14.420Z,100.00
2023-04-15T05:40:42.717Z,100.00
2023-04-15T05:43:11.776Z,100.00
2023-04-15T05:45:40.594Z,100.00
2023-04-15T05:48:08.743Z,100.00
2023-04-15T05:50:38.362Z,100.00
2023-04-15T05:53:08.690Z,100.00
2023-04-15T05:55:37.059Z,100.00
2023-04-15T05:58:05.403Z,100.00
2023-04-15T06:00:34.019Z,100.00
2023-04-15T06:03:04.045Z,100.00
2023-04-15T06:05:32.276Z,100.00
2023-04-15T06:08:00.543Z,100.00
2023-04-15T06:10:36.447Z,100.00
2023-04-15T06:13:05.487Z,100.00
2023-04-15T06:15:35.301Z,100.00
2023-04-15T06:18:03.703Z,100.00
2023-04-15T06:20:32.054Z,100.00
2023-04-15T06:23:00.851Z,100.00
2023-04-15T06:25:29.118Z,100.00
2023-04-15T06:27:59.114Z,100.00
2023-04-15T06:30:27.628Z,100.00
2023-04-15T06:32:58.991Z,100.00
2023-04-15T06:35:27.487Z,100.00
2023-04-15T06:37:56.872Z,100.00
2023-04-15T06:40:26.790Z,100.00
2023-04-15T06:42:55.070Z,100.00
2023-04-15T06:45:24.788Z,100.00
2023-04-15T06:47:53.215Z,100.00
2023-04-15T06:50:23.546Z,100.00
2023-04-15T06:52:52.061Z,100.00
2023-04-15T06:55:20.714Z,100.00
2023-04-15T06:57:49.030Z,100.00
2023-04-15T07:00:17.712Z,100.00
2023-04-15T07:02:47.913Z,100.00
2023-04-15T07:05:16.856Z,100.00
2023-04-15T07:07:45.329Z,100.00
2023-04-15T07:10:15.021Z,100.00
2023-04-15T07:12:43.340Z,100.00
2023-04-15T07:15:12.322Z,100.00
2023-04-15T07:17:40.578Z,100.00
2023-04-15T07:20:11.205Z,100.00
2023-04-15T07:22:39.488Z,100.00
2023-04-15T07:25:08.962Z,100.00
2023-04-15T07:27:37.157Z,100.00
2023-04-15T07:30:06.358Z,100.00
2023-04-15T07:32:35.114Z,100.00
2023-04-15T07:35:08.351Z,100.00
2023-04-15T07:37:37.931Z,100.00
2023-04-15T07:40:09.061Z,100.00
2023-04-15T07:42:40.743Z,100.00
2023-04-15T07:45:12.797Z,100.00
2023-04-15T07:47:42.211Z,100.00
2023-04-15T07:50:11.885Z,100.00
2023-04-15T07:52:42.947Z,100.00
2023-04-15T07:55:11.504Z,100.00
2023-04-15T07:57:40.319Z,100.00
2023-04-15T08:00:10.210Z,100.00
2023-04-15T08:02:41.666Z,100.00
2023-04-15T08:05:10.659Z,100.00
2023-04-15T08:07:39.863Z,100.00
2023-04-15T08:10:10.073Z,100.00
2023-04-15T08:12:41.453Z,100.00
2023-04-15T08:15:11.002Z,100.00
2023-04-15T08:17:39.243Z,100.00
2023-04-15T08:20:09.020Z,100.00
2023-04-15T08:22:37.484Z,100.00
2023-04-15T08:25:06.915Z,100.00
2023-04-15T08:27:36.860Z,100.00
2023-04-15T08:30:05.321Z,100.00
2023-04-15T08:32:34.027Z,100.00
2023-04-15T08:35:02.854Z,100.00
2023-04-15T08:37:31.192Z,100.00
2023-04-15T08:39:59.575Z,100.00
2023-04-15T08:42:32.896Z,100.00
2023-04-15T08:45:05.657Z,100.00
2023-04-15T08:47:35.929Z,100.00
2023-04-15T08:50:05.561Z,100.00
2023-04-15T08:52:33.796Z,100.00
2023-04-15T08:55:05.040Z,100.00
2023-04-15T08:57:34.356Z,99.02
2023-04-15T09:00:05.779Z,91.98
2023-04-15T09:02:34.923Z,82.66
2023-04-15T09:05:05.296Z,74.88
2023-04-15T09:07:35.009Z,74.48
2023-04-15T09:10:04.005Z,74.70
2023-04-15T09:12:35.123Z,75.77
2023-04-15T09:15:07.895Z,80.89
2023-04-15T09:17:36.242Z,76.88
2023-04-15T09:20:13.363Z,81.04
2023-04-15T09:22:43.029Z,74.42
2023-04-15T09:25:27.792Z,78.42
2023-04-15T09:27:57.601Z,74.34
2023-04-15T09:30:31.645Z,77.27
2023-04-15T09:33:02.274Z,74.65
2023-04-15T09:35:30.643Z,73.10
2023-04-15T09:38:05.797Z,72.63
2023-04-15T09:40:36.434Z,72.39
2023-04-15T09:43:06.170Z,69.46
2023-04-15T09:45:38.148Z,66.06
2023-04-15T09:48:22.870Z,68.40
2023-04-15T09:50:53.930Z,67.08
2023-04-15T09:53:23.882Z,64.60
2023-04-15T09:55:54.304Z,64.88
2023-04-15T09:58:24.563Z,65.75
2023-04-15T10:00:58.837Z,63.53
2023-04-15T10:03:29.112Z,65.63
2023-04-15T10:06:01.040Z,61.66
2023-04-15T10:08:32.836Z,62.77
2023-04-15T10:11:02.821Z,57.64
2023-04-15T10:13:37.054Z,55.23
2023-04-15T10:16:09.663Z,56.98
2023-04-15T10:18:44.367Z,55.65
2023-04-15T10:21:13.974Z,55.79
2023-04-15T10:23:42.638Z,56.01
2023-04-15T10:26:12.389Z,53.96
2023-04-15T10:28:40.849Z,54.14
2023-04-15T10:31:16.731Z,56.39
2023-04-15T10:33:48.846Z,56.34
2023-04-15T10:36:17.708Z,59.41
2023-04-15T10:38:46.811Z,56.76
2023-04-15T10:41:21.592Z,56.91
2023-04-15T10:43:53.019Z,55.18
2023-04-15T10:46:25.712Z,55.83
2023-04-15T10:48:55.163Z,56.78
2023-04-15T10:51:32.100Z,55.90
2023-04-15T10:54:00.972Z,56.28
2023-04-15T10:56:30.205Z,55.60
2023-04-15T10:59:05.625Z,54.03
2023-04-15T11:01:53.783Z,54.74
2023-04-15T11:04:53.616Z,58.09
2023-04-15T11:07:35.548Z,58.13
2023-04-15T11:10:04.855Z,58.40
2023-04-15T11:12:37.550Z,57.51
2023-04-15T11:15:26.399Z,55.77
2023-04-15T11:17:58.695Z,55.30
2023-04-15T11:20:29.967Z,55.49
2023-04-15T11:23:14.018Z,57.09
2023-04-15T11:25:44.861Z,57.43
2023-04-15T11:28:14.870Z,56.35
2023-04-15T11:30:44.627Z,58.60
2023-04-15T11:33:14.628Z,57.05
2023-04-15T11:35:43.983Z,56.70
2023-04-15T11:38:14.394Z,57.75
2023-04-15T11:40:47.012Z,57.94
2023-04-15T11:43:19.015Z,58.23
2023-04-15T11:45:53.330Z,55.09
2023-04-15T11:48:24.663Z,55.42
2023-04-15T11:50:57.336Z,52.82
2023-04-15T11:53:26.644Z,50.78
2023-04-15T11:55:55.210Z,48.09
2023-04-15T11:58:27.773Z,50.17
2023-04-15T12:00:58.205Z,49.35
2023-04-15T12:03:33.048Z,52.26
2023-04-15T12:06:13.352Z,51.53
2023-04-15T12:09:01.560Z,54.04
2023-04-15T12:11:36.142Z,54.00
2023-04-15T12:14:10.027Z,50.48
2023-04-15T12:16:48.271Z,54.76
2023-04-15T12:19:24.337Z,51.78
2023-04-15T12:21:55.165Z,53.52
2023-04-15T12:24:24.052Z,55.80
2023-04-15T12:26:54.005Z,56.04
2023-04-15T12:29:27.736Z,55.57
2023-04-15T12:31:57.330Z,55.33
2023-04-15T12:34:31.563Z,57.64
2023-04-15T12:37:01.608Z,57.42
2023-04-15T12:39:32.224Z,55.88
2023-04-15T12:42:01.671Z,57.80
2023-04-15T12:44:30.695Z,59.49
2023-04-15T12:47:00.401Z,58.16
2023-04-15T12:49:31.104Z,58.76
2023-04-15T12:52:02.019Z,59.88
2023-04-15T12:54:32.181Z,61.07
2023-04-15T12:57:05.990Z,58.29
2023-04-15T12:59:35.782Z,59.52
2023-04-15T13:02:04.869Z,62.73
2023-04-15T13:04:36.070Z,63.68
2023-04-15T13:07:04.918Z,66.00
2023-04-15T13:09:34.231Z,64.31
2023-04-15T13:12:02.636Z,68.43
2023-04-15T13:14:31.603Z,68.49
2023-04-15T13:17:00.901Z,68.92
2023-04-15T13:19:29.562Z,70.40
2023-04-15T13:21:59.323Z,77.13
2023-04-15T13:24:27.731Z,96.53
2023-04-15T13:26:57.279Z,100.00
2023-04-15T13:29:26.216Z,100.00
2023-04-15T13:31:57.774Z,100.00
2023-04-15T13:34:27.064Z,100.00
2023-04-15T13:36:55.671Z,100.00
2023-04-15T13:39:26.571Z,100.00
2023-04-15T13:41:56.150Z,100.00
2023-04-15T13:44:25.287Z,100.00
2023-04-15T13:46:54.465Z,100.00
2023-04-15T13:49:22.652Z,100.00
2023-04-15T13:51:51.796Z,100.00
2023-04-15T13:54:21.327Z,100.00
2023-04-15T13:56:51.465Z,100.00
2023-04-15T13:59:19.958Z,100.00
2023-04-15T14:01:49.003Z,100.00
2023-04-15T14:04:17.942Z,100.00
2023-04-15T14:06:48.987Z,100.00
2023-04-15T14:09:19.196Z,100.00
2023-04-15T14:11:47.940Z,100.00
2023-04-15T14:14:17.804Z,100.00
2023-04-15T14:16:46.288Z,100.00
2023-04-15T14:19:15.521Z,100.00
2023-04-15T14:21:44.419Z,100.00
2023-04-15T14:24:14.004Z,100.00
2023-04-15T14:26:44.459Z,100.00
2023-04-15T14:29:14.443Z,100.00
2023-04-15T14:32:04.525Z,100.00
2023-04-15T14:34:33.440Z,100.00
2023-04-15T14:37:04.090Z,100.00
2023-04-15T14:39:32.644Z,100.00
2023-04-15T14:42:02.437Z,100.00
2023-04-15T14:47:01.526Z,100.00
2023-04-15T14:49:30.953Z,100.00
2023-04-15T14:51:59.315Z,100.00
2023-04-15T14:54:30.930Z,100.00
2023-04-15T14:57:01.768Z,100.00
2023-04-15T14:59:30.413Z,100.00
2023-04-15T15:01:59.350Z,100.00
2023-04-15T15:04:30.318Z,100.00
2023-04-15T15:06:59.220Z,100.00
2023-04-15T15:09:29.105Z,100.00
2023-04-15T15:11:57.846Z,100.00
2023-04-15T15:14:27.292Z,100.00
2023-04-15T15:16:55.888Z,100.00
2023-04-15T15:19:25.036Z,100.00
2023-04-15T15:21:55.813Z,100.00
2023-04-15T15:24:24.703Z,100.00
2023-04-15T15:26:53.600Z,100.00
2023-04-15T15:29:22.411Z,100.00
2023-04-15T15:31:53.495Z,100.00
2023-04-15T15:34:22.324Z,100.00
2023-04-15T15:36:51.861Z,100.00
2023-04-15T15:39:21.560Z,100.00
2023-04-15T15:41:50.322Z,100.00
2023-04-15T15:44:18.414Z,100.00
2023-04-15T15:46:46.891Z,100.00
2023-04-15T15:49:15.576Z,100.00
2023-04-15T15:51:43.993Z,100.00
2023-04-15T15:54:12.202Z,100.00
2023-04-15T15:56:42.249Z,100.00
2023-04-15T15:59:10.516Z,100.00
2023-04-15T16:01:39.183Z,100.00
2023-04-15T16:04:07.973Z,100.00
2023-04-15T16:06:36.806Z,100.00
2023-04-15T16:09:06.269Z,100.00
2023-04-15T16:11:35.312Z,100.00
2023-04-15T16:14:05.050Z,100.00
2023-04-15T16:16:34.901Z,100.00
2023-04-15T16:19:03.459Z,100.00
2023-04-15T16:21:32.329Z,100.00
2023-04-15T16:24:00.720Z,100.00
2023-04-15T16:26:30.003Z,100.00
2023-04-15T16:29:00.976Z,100.00
2023-04-15T16:31:31.193Z,100.00
2023-04-15T16:33:59.821Z,100.00
2023-04-15T16:36:28.639Z,100.00
2023-04-15T16:38:57.028Z,100.00
2023-04-15T16:41:25.487Z,100.00
2023-04-15T16:43:55.873Z,100.00
2023-04-15T16:46:25.572Z,100.00
2023-04-15T16:48:56.931Z,100.00
2023-04-15T16:51:25.210Z,100.00
2023-04-15T16:53:53.950Z,100.00
2023-04-15T16:56:22.698Z,100.00
2023-04-15T16:58:52.301Z,100.00
2023-04-15T17:01:22.159Z,100.00
2023-04-15T17:03:55.899Z,100.00
2023-04-15T17:06:26.977Z,100.00
2023-04-15T17:08:56.785Z,100.00
2023-04-15T17:11:24.961Z,100.00
2023-04-15T17:13:53.109Z,100.00
2023-04-15T17:16:21.869Z,100.00
2023-04-15T17:18:50.509Z,100.00
2023-04-15T17:21:18.674Z,100.00
2023-04-15T17:23:48.799Z,100.00
2023-04-15T17:26:19.287Z,100.00
2023-04-15T17:28:47.658Z,100.00
2023-04-15T17:31:15.987Z,100.00
2023-04-15T17:33:59.940Z,100.00
2023-04-15T17:36:34.048Z,100.00
2023-04-15T17:39:03.816Z,100.00
2023-04-15T17:41:32.390Z,100.00
2023-04-15T17:44:00.691Z,100.00
2023-04-15T17:46:29.243Z,100.00
2023-04-15T17:48:57.826Z,100.00
2023-04-15T17:51:26.245Z,100.00
2023-04-15T17:54:09.449Z,100.00
2023-04-15T17:56:39.512Z,100.00
2023-04-15T17:59:09.027Z,100.00
2023-04-15T18:01:38.154Z,100.00
2023-04-15T18:04:07.204Z,100.00
2023-04-15T18:06:35.727Z,100.00
2023-04-15T18:09:04.610Z,100.00
2023-04-15T18:11:34.795Z,100.00
2023-04-15T18:14:04.365Z,100.00
2023-04-15T18:16:33.250Z,100.00
2023-04-15T18:19:01.928Z,100.00
2023-04-15T18:21:30.163Z,100.00
2023-04-15T18:23:58.601Z,100.00
2023-04-15T18:26:27.072Z,100.00
2023-04-15T18:28:57.263Z,100.00
2023-04-15T18:31:25.626Z,100.00
2023-04-15T18:33:53.991Z,100.00
2023-04-15T18:36:22.540Z,100.00
2023-04-15T18:38:51.162Z,100.00
2023-04-15T18:41:19.717Z,100.00
2023-04-15T18:43:48.249Z,100.00
2023-04-15T18:46:19.042Z,100.00
2023-04-15T18:48:47.529Z,100.00
2023-04-15T18:51:16.192Z,100.00
2023-04-15T18:53:44.686Z,100.00
2023-04-15T18:56:14.890Z,100.00
2023-04-15T18:59:10.134Z,100.00
2023-04-15T19:01:33.868Z,100.00
2023-04-15T19:04:03.325Z,100.00
2023-04-15T19:06:33.997Z,100.00
2023-04-15T19:09:07.506Z,100.00
2023-04-15T19:11:35.932Z,100.00
2023-04-15T19:14:04.420Z,100.00
2023-04-15T19:16:34.657Z,100.00
2023-04-15T19:19:03.542Z,100.00
2023-04-15T19:21:33.495Z,100.00
2023-04-15T19:24:01.896Z,100.00
2023-04-15T19:26:30.397Z,100.00
2023-04-15T19:29:04.040Z,100.00
2023-04-15T19:31:34.144Z,100.00
2023-04-15T19:34:02.614Z,100.00
2023-04-15T19:36:31.496Z,100.00
2023-04-15T19:39:00.852Z,100.00
2023-04-15T19:41:29.228Z,100.00
2023-04-15T19:43:57.648Z,100.00
2023-04-15T19:46:28.821Z,100.00
2023-04-15T19:48:59.060Z,100.00
2023-04-15T19:51:28.760Z,100.00
2023-04-15T19:53:57.367Z,100.00
2023-04-15T19:56:26.302Z,100.00
2023-04-15T19:58:55.860Z,100.00
2023-04-15T20:01:24.679Z,100.00
2023-04-15T20:03:55.272Z,100.00
2023-04-15T20:06:26.730Z,100.00
2023-04-15T20:08:55.501Z,100.00
2023-04-15T20:12:05.216Z,100.00
2023-04-15T20:14:17.687Z,100.00
2023-04-15T20:16:47.862Z,100.00
2023-04-15T20:19:16.282Z,100.00
2023-04-15T20:21:46.427Z,100.00
2023-04-15T20:24:14.949Z,100.00
2023-04-15T20:26:43.070Z,100.00
2023-04-15T20:29:13.598Z,100.00
2023-04-15T20:31:41.904Z,100.00
2023-04-15T20:34:11.964Z,100.00
2023-04-15T20:36:41.362Z,100.00
2023-04-15T20:39:11.216Z,100.00
2023-04-15T20:41:41.101Z,100.00
2023-04-15T20:44:09.619Z,100.00
2023-04-15T20:46:38.219Z,100.00
2023-04-15T20:49:06.607Z,100.00
2023-04-15T20:51:37.714Z,100.00
2023-04-15T20:54:07.459Z,100.00
2023-04-15T20:56:37.234Z,100.00
2023-04-15T20:59:05.608Z,100.00
2023-04-15T21:01:33.921Z,100.00
2023-04-15T21:04:02.724Z,100.00
2023-04-15T21:06:30.943Z,100.00
2023-04-15T21:08:59.541Z,100.00
2023-04-15T21:11:49.406Z,100.00
2023-04-15T21:14:18.524Z,100.00
2023-04-15T21:16:47.828Z,100.00
2023-04-15T21:19:16.262Z,100.00
2023-04-15T21:21:47.510Z,100.00
2023-04-15T21:24:15.815Z,100.00
2023-04-15T21:26:47.475Z,100.00
2023-04-15T21:29:19.134Z,100.00
2023-04-15T21:31:47.976Z,100.00
2023-04-15T21:34:16.709Z,100.00
2023-04-15T21:36:45.929Z,100.00
2023-04-15T21:39:14.343Z,100.00
2023-04-15T21:41:44.063Z,100.00
2023-04-15T21:44:14.001Z,100.00
2023-04-15T21:46:46.111Z,100.00
2023-04-15T21:49:16.112Z,100.00
2023-04-15T21:51:45.617Z,100.00
2023-04-15T21:54:14.035Z,100.00
2023-04-15T21:56:43.418Z,100.00
2023-04-15T21:59:11.557Z,100.00
2023-04-15T22:01:40.496Z,100.00
2023-04-15T22:04:11.186Z,100.00
2023-04-15T22:06:39.500Z,100.00
2023-04-15T22:09:07.662Z,100.00
2023-04-15T22:11:36.106Z,100.00
2023-04-15T22:14:05.313Z,100.00
2023-04-15T22:16:33.763Z,100.00
2023-04-15T22:19:03.805Z,100.00
2023-04-15T22:21:37.128Z,100.00
2023-04-15T22:24:37.250Z,100.00
2023-04-15T22:26:54.849Z,100.00
2023-04-15T22:29:23.461Z,100.00
2023-04-15T22:31:52.974Z,100.00
2023-04-15T22:34:22.450Z,100.00
2023-04-15T22:36:53.318Z,100.00
2023-04-15T22:39:24.756Z,100.00
2023-04-15T22:41:54.677Z,100.00
2023-04-15T22:44:23.214Z,100.00
2023-04-15T22:46:52.504Z,100.00
2023-04-15T22:49:20.644Z,100.00
2023-04-15T22:51:48.747Z,100.00
2023-04-15T22:54:18.320Z,100.00
2023-04-15T22:56:46.473Z,100.00
2023-04-15T22:59:14.535Z,100.00
2023-04-15T23:01:43.020Z,100.00
2023-04-15T23:04:23.514Z,100.00
2023-04-15T23:06:57.752Z,100.00
2023-04-15T23:09:27.514Z,100.00
2023-04-15T23:11:56.864Z,100.00
2023-04-15T23:14:26.184Z,100.00
2023-04-15T23:16:54.867Z,100.00
2023-04-15T23:19:23.024Z,100.00
2023-04-15T23:21:52.039Z,100.00
2023-04-15T23:24:20.638Z,100.00
2023-04-15T23:26:52.768Z,100.00
2023-04-15T23:29:21.485Z,100.00
2023-04-15T23:31:52.834Z,100.00
2023-04-15T23:34:22.514Z,100.00
2023-04-15T23:36:51.498Z,100.00
2023-04-15T23:39:21.859Z,100.00
2023-04-15T23:41:55.370Z,100.00
2023-04-15T23:44:25.466Z,100.00
2023-04-15T23:46:53.804Z,100.00
2023-04-15T23:49:22.271Z,100.00
2023-04-15T23:51:51.012Z,100.00
2023-04-15T23:54:19.560Z,100.00
2023-04-15T23:56:48.122Z,100.00
2023-04-15T23:59:17.580Z,100.00
